createdAt,value
2023-01-13T00:04:05.313Z,98637.72
2023-01-13T00:09:07.022Z,98643.81
2023-01-13T00:14:08.812Z,98648.06
2023-01-13T00:19:10.573Z,98639.34
2023-01-13T00:24:12.346Z,98645.53
2023-01-13T00:29:14.181Z,98639.50
2023-01-13T00:34:15.942Z,98636.84
2023-01-13T00:39:17.680Z,98631.69
2023-01-13T00:44:19.660Z,98631.72
2023-01-13T00:49:21.391Z,98631.81
2023-01-13T00:54:23.186Z,98626.91
2023-01-13T00:59:25.068Z,98626.78
2023-01-13T01:04:26.862Z,98617.25
2023-01-13T01:09:32.939Z,98614.66
2023-01-13T01:14:34.940Z,98606.91
2023-01-13T01:19:39.848Z,98615.47
2023-01-13T01:24:41.652Z,98608.22
2023-01-13T01:29:43.439Z,98602.38
2023-01-13T01:34:45.215Z,98590.97
2023-01-13T01:39:46.969Z,98584.03
2023-01-13T01:44:56.517Z,98598.97
2023-01-13T01:49:58.951Z,98607.22
2023-01-13T01:55:14.097Z,98617.44
2023-01-13T02:00:16.102Z,98599.97
2023-01-13T02:05:18.156Z,98581.88
2023-01-13T02:10:27.733Z,98575.69
2023-01-13T02:16:17.978Z,98568.81
2023-01-13T02:21:48.172Z,98560.19
2023-01-13T02:27:23.925Z,98559.34
2023-01-13T02:32:36.070Z,98552.34
2023-01-13T02:37:42.470Z,98553.28
2023-01-13T02:43:18.353Z,98545.22
2023-01-13T02:48:23.263Z,98549.53
2023-01-13T02:53:59.869Z,98540.38
2023-01-13T02:59:02.405Z,98527.72
2023-01-13T03:04:14.609Z,98516.50
2023-01-13T03:09:33.021Z,98504.56
2023-01-13T03:14:47.953Z,98518.13
2023-01-13T03:20:05.378Z,98504.22
2023-01-13T03:25:24.144Z,98529.53
2023-01-13T03:30:44.692Z,98523.53
2023-01-13T03:35:52.011Z,98531.06
2023-01-13T03:41:01.422Z,98516.44
2023-01-13T03:46:10.033Z,98517.28
2023-01-13T03:51:16.599Z,98500.94
2023-01-13T03:56:26.970Z,98535.06
2023-01-13T04:01:42.813Z,98532.13
2023-01-13T04:06:54.709Z,98524.47
2023-01-13T04:12:04.105Z,98539.91
2023-01-13T04:17:05.945Z,98561.72
2023-01-13T04:22:07.610Z,98538.88
2023-01-13T04:27:10.485Z,98509.75
2023-01-13T04:32:12.684Z,98490.44
2023-01-13T04:37:14.326Z,98512.09
2023-01-13T04:42:16.005Z,98518.91
2023-01-13T04:47:17.740Z,98524.53
2023-01-13T04:52:19.517Z,98520.44
2023-01-13T04:57:21.471Z,98502.72
2023-01-13T05:02:23.179Z,98511.88
2023-01-13T05:07:24.949Z,98509.28
2023-01-13T05:12:45.433Z,98514.66
2023-01-13T05:17:47.654Z,98494.34
2023-01-13T05:23:08.114Z,98492.94
2023-01-13T05:28:10.201Z,98474.22
2023-01-13T05:33:15.615Z,98461.91
2023-01-13T05:38:18.216Z,98476.88
2023-01-13T05:43:24.862Z,98484.88
2023-01-13T05:48:27.837Z,98465.34
2023-01-13T05:53:30.184Z,98459.56
2023-01-13T05:58:32.002Z,98475.31
2023-01-13T06:03:33.800Z,98485.69
2023-01-13T06:08:36.499Z,98498.75
2023-01-13T06:13:39.160Z,98499.72
2023-01-13T06:18:40.881Z,98497.94
2023-01-13T06:23:42.553Z,98489.28
2023-01-13T06:28:44.641Z,98482.13
2023-01-13T06:33:50.661Z,98474.50
2023-01-13T06:38:57.057Z,98477.16
2023-01-13T06:43:58.851Z,98486.63
2023-01-13T06:49:00.592Z,98490.97
2023-01-13T06:54:02.357Z,98483.06
2023-01-13T06:59:04.204Z,98505.97
2023-01-13T07:04:05.887Z,98515.47
2023-01-13T07:09:07.621Z,98511.03
2023-01-13T07:14:27.881Z,98503.97
2023-01-13T07:19:29.583Z,98487.38
2023-01-13T07:24:31.331Z,98473.41
2023-01-13T07:29:33.039Z,98485.50
2023-01-13T07:34:34.945Z,98492.50
2023-01-13T07:39:36.768Z,98494.06
2023-01-13T07:44:38.493Z,98498.44
2023-01-13T07:49:40.302Z,98491.38
2023-01-13T07:54:42.096Z,98499.09
2023-01-13T07:59:43.848Z,98498.22
2023-01-13T08:04:45.631Z,98481.59
2023-01-13T08:09:47.410Z,98487.81
2023-01-13T08:14:50.299Z,98482.41
2023-01-13T08:19:52.121Z,98487.56
2023-01-13T08:24:53.886Z,98479.59
2023-01-13T08:29:55.625Z,98458.63
2023-01-13T08:34:58.314Z,98464.47
2023-01-13T08:40:00.059Z,98464.63
2023-01-13T08:45:01.924Z,98470.72
2023-01-13T08:50:04.663Z,98505.94
2023-01-13T08:55:07.127Z,98503.88
2023-01-13T09:00:09.505Z,98493.22
2023-01-13T09:05:11.875Z,98498.53
2023-01-13T09:10:13.636Z,98483.66
2023-01-13T09:15:18.555Z,98477.41
2023-01-13T09:20:20.550Z,98480.78
2023-01-13T09:25:22.535Z,98470.13
2023-01-13T09:30:25.069Z,98479.53
2023-01-13T09:35:26.855Z,98462.00
2023-01-13T09:40:28.651Z,98448.72
2023-01-13T09:45:45.951Z,98430.91
2023-01-13T09:50:57.406Z,98444.72
2023-01-13T09:55:59.661Z,98467.44
2023-01-13T10:01:20.897Z,98466.66
2023-01-13T10:06:44.271Z,98430.72
2023-01-13T10:12:07.164Z,98436.63
2023-01-13T10:17:08.989Z,98431.41
2023-01-13T10:22:29.621Z,98415.19
2023-01-13T10:27:35.243Z,98417.97
2023-01-13T10:32:37.005Z,98396.66
2023-01-13T10:37:38.799Z,98388.00
2023-01-13T10:42:41.833Z,98373.59
2023-01-13T10:47:43.508Z,98387.09
2023-01-13T10:52:57.397Z,98375.81
2023-01-13T10:58:18.713Z,98360.78
2023-01-13T11:03:25.131Z,98368.97
2023-01-13T11:08:44.019Z,98358.09
2023-01-13T11:14:05.601Z,98347.34
2023-01-13T11:19:17.279Z,98335.66
2023-01-13T11:24:25.675Z,98344.47
2023-01-13T11:29:34.059Z,98328.84
2023-01-13T11:34:39.757Z,98319.91
2023-01-13T11:40:00.757Z,98305.00
2023-01-13T11:45:02.398Z,98311.72
2023-01-13T11:50:14.657Z,98298.41
2023-01-13T11:55:34.681Z,98306.41
2023-01-13T12:01:02.900Z,98306.03
2023-01-13T12:06:49.539Z,98290.31
2023-01-13T12:12:33.054Z,98279.72
2023-01-13T12:17:52.622Z,98270.88
2023-01-13T12:22:59.844Z,98269.53
2023-01-13T12:28:11.893Z,98269.41
2023-01-13T12:33:33.999Z,98267.59
2023-01-13T12:38:56.885Z,98264.53
2023-01-13T12:44:17.143Z,98250.19
2023-01-13T12:49:29.498Z,98258.81
2023-01-13T12:54:53.367Z,98266.28
2023-01-13T13:00:04.029Z,98269.78
2023-01-13T13:05:14.905Z,98261.22
2023-01-13T13:10:16.605Z,98256.81
2023-01-13T13:15:24.001Z,98251.03
2023-01-13T13:21:04.549Z,98266.81
2023-01-13T13:26:20.333Z,98269.88
2023-01-13T13:31:31.052Z,98271.97
2023-01-13T13:36:41.905Z,98262.34
2023-01-13T13:42:06.660Z,98268.63
2023-01-13T13:47:08.384Z,98270.53
2023-01-13T13:52:27.950Z,98271.53
2023-01-13T13:57:39.416Z,98281.38
2023-01-13T14:02:48.770Z,98285.09
2023-01-13T14:08:02.116Z,98269.94
2023-01-13T14:13:25.151Z,98280.28
2023-01-13T14:18:29.507Z,98287.47
2023-01-13T14:23:33.701Z,98294.31
2023-01-13T14:28:40.381Z,98290.09
2023-01-13T14:33:48.214Z,98291.47
2023-01-13T14:39:14.904Z,98286.88
2023-01-13T14:44:29.161Z,98287.44
2023-01-13T14:49:41.631Z,98301.41
2023-01-13T14:54:43.223Z,98302.38
2023-01-13T14:59:44.821Z,98305.53
2023-01-13T15:04:46.553Z,98322.50
2023-01-13T15:09:56.626Z,98318.72
2023-01-13T15:14:58.350Z,98325.41
2023-01-13T15:20:01.532Z,98333.16
2023-01-13T15:25:03.250Z,98327.22
2023-01-13T15:30:21.504Z,98332.47
2023-01-13T15:35:24.975Z,98318.75
2023-01-13T15:40:31.904Z,98327.13
2023-01-13T15:45:55.030Z,98333.25
2023-01-13T15:50:56.745Z,98328.88
2023-01-13T15:55:59.085Z,98333.78
2023-01-13T16:01:00.843Z,98327.09
2023-01-13T16:06:02.568Z,98332.13
2023-01-13T16:11:04.363Z,98345.75
2023-01-13T16:16:25.282Z,98329.94
2023-01-13T16:21:27.045Z,98315.97
2023-01-13T16:26:30.459Z,98311.97
2023-01-13T16:31:33.763Z,98324.19
2023-01-13T16:36:37.091Z,98324.78
2023-01-13T16:41:38.750Z,98321.69
2023-01-13T16:46:40.841Z,98330.78
2023-01-13T16:51:42.627Z,98336.91
2023-01-13T16:56:44.557Z,98352.66
2023-01-13T17:01:46.513Z,98351.97
2023-01-13T17:06:58.628Z,98356.03
2023-01-13T17:12:00.694Z,98386.78
2023-01-13T17:17:02.395Z,98390.28
2023-01-13T17:22:04.248Z,98391.16
2023-01-13T17:27:06.811Z,98392.66
2023-01-13T17:32:14.414Z,98398.09
2023-01-13T17:37:16.559Z,98390.78
2023-01-13T17:42:18.727Z,98395.75
2023-01-13T17:47:20.546Z,98404.47
2023-01-13T17:52:22.491Z,98416.22
2023-01-13T17:57:24.561Z,98405.22
2023-01-13T18:02:26.640Z,98403.91
2023-01-13T18:07:28.645Z,98422.69
2023-01-13T18:12:30.471Z,98423.31
2023-01-13T18:17:32.548Z,98439.66
2023-01-13T18:22:53.380Z,98446.41
2023-01-13T18:27:55.662Z,98454.13
2023-01-13T18:32:58.218Z,98463.34
2023-01-13T18:37:59.992Z,98486.81
2023-01-13T18:43:01.991Z,98481.03
2023-01-13T18:48:05.704Z,98490.31
2023-01-13T18:53:08.420Z,98503.81
2023-01-13T18:58:10.957Z,98506.56
2023-01-13T19:03:13.142Z,98514.75
2023-01-13T19:08:15.787Z,98530.50
2023-01-13T19:13:19.010Z,98527.06
2023-01-13T19:18:24.417Z,98522.22
2023-01-13T19:23:26.142Z,98527.69
2023-01-13T19:28:28.477Z,98525.09
2023-01-13T19:33:34.067Z,98523.13
2023-01-13T19:38:37.867Z,98532.66
2023-01-13T19:43:58.205Z,98540.53
2023-01-13T19:49:00.242Z,98555.84
2023-01-13T19:54:02.590Z,98568.47
2023-01-13T19:59:04.942Z,98575.41
2023-01-13T20:04:14.396Z,98580.53
2023-01-13T20:09:16.402Z,98597.44
2023-01-13T20:14:19.383Z,98630.34
2023-01-13T20:19:21.418Z,98643.78
2023-01-13T20:24:26.169Z,98668.88
2023-01-13T20:29:28.740Z,98651.66
2023-01-13T20:34:31.239Z,98669.28
2023-01-13T20:39:34.850Z,98669.31
2023-01-13T20:44:36.747Z,98676.19
2023-01-13T20:49:39.139Z,98668.94
2023-01-13T20:54:41.382Z,98679.59
2023-01-13T20:59:43.229Z,98681.19
2023-01-13T21:04:45.055Z,98666.34
2023-01-13T21:09:47.035Z,98674.22
2023-01-13T21:15:07.237Z,98684.66
2023-01-13T21:20:11.351Z,98675.84
2023-01-13T21:25:14.273Z,98678.59
2023-01-13T21:30:17.140Z,98671.72
2023-01-13T21:35:18.971Z,98649.16
2023-01-13T21:40:20.793Z,98696.69
2023-01-13T21:45:41.394Z,98693.00
2023-01-13T21:50:43.154Z,98703.50
2023-01-13T21:55:44.833Z,98716.72
2023-01-13T22:00:49.322Z,98721.00
2023-01-13T22:05:55.807Z,98721.84
2023-01-13T22:10:58.236Z,98728.13
2023-01-13T22:16:04.459Z,98736.06
2023-01-13T22:21:06.481Z,98729.00
2023-01-13T22:26:08.334Z,98739.59
2023-01-13T22:31:15.402Z,98752.00
2023-01-13T22:36:17.149Z,98742.41
2023-01-13T22:41:18.931Z,98742.56
2023-01-13T22:46:20.605Z,98742.53
2023-01-13T22:51:22.977Z,98752.25
2023-01-13T22:56:25.905Z,98755.69
2023-01-13T23:01:29.573Z,98768.19
2023-01-13T23:06:33.332Z,98748.97
2023-01-13T23:11:35.457Z,98736.47
2023-01-13T23:16:39.484Z,98733.03
2023-01-13T23:21:41.149Z,98732.13
2023-01-13T23:26:42.799Z,98728.00
2023-01-13T23:31:44.476Z,98728.56
2023-01-13T23:36:46.236Z,98751.47
2023-01-13T23:41:47.926Z,98750.59
2023-01-13T23:46:49.657Z,98762.00
2023-01-13T23:51:52.114Z,98775.31
2023-01-13T23:56:53.832Z,98791.00
